TAP1931 LPPR-LPPT
Flight info
| Callsign | TAP1931 |
|---|---|
| Flight time | 0h 44m |
| Altitude | 23000 |
| Route | MANIK DCT ABRIL DCT XAMAX |
| Aircraft | A321/M-SDE3FGHIJ1RWXYZ/LB1 |
Departure
| Time | 2026-05-07 16:57 |
|---|---|
| Airport | Francisco de Sá Carneiro Airport (LPPR) |
Arrival
| Time | 2026-05-07 17:41 |
|---|---|
| Airport | Lisbon Humberto Delgado Airport (LPPT) |
| Time | Latitude | Longitude | Altitude | Speed | Heading |
|---|---|---|---|---|---|
| 2026-05-07 16:28 | 41.23640 | -8.67241 | 246 ft | 0 kts | 79° |
| 2026-05-07 16:47 | 41.23640 | -8.67242 | 245 ft | 2 kts | 79° |
| 2026-05-07 16:47 | 41.23635 | -8.67275 | 245 ft | 4 kts | 79° |
| 2026-05-07 16:47 | 41.23631 | -8.67304 | 243 ft | 4 kts | 95° |
| 2026-05-07 16:48 | 41.23640 | -8.67331 | 242 ft | 4 kts | 154° |
| 2026-05-07 16:48 | 41.23666 | -8.67340 | 242 ft | 3 kts | 169° |
| 2026-05-07 16:48 | 41.23669 | -8.67341 | 242 ft | 0 kts | 169° |
| 2026-05-07 16:50 | 41.23668 | -8.67341 | 242 ft | 1 kts | 176° |
| 2026-05-07 16:50 | 41.23646 | -8.67377 | 240 ft | 14 kts | 240° |
| 2026-05-07 16:50 | 41.23626 | -8.67489 | 238 ft | 10 kts | 265° |
| 2026-05-07 16:51 | 41.23624 | -8.67513 | 235 ft | 0 kts | 262° |
| 2026-05-07 16:51 | 41.23622 | -8.67537 | 234 ft | 9 kts | 261° |
| 2026-05-07 16:52 | 41.23608 | -8.67635 | 233 ft | 9 kts | 259° |
| 2026-05-07 16:52 | 41.23606 | -8.67652 | 233 ft | 0 kts | 259° |
| 2026-05-07 16:54 | 41.23599 | -8.67699 | 233 ft | 13 kts | 259° |
| 2026-05-07 16:54 | 41.23630 | -8.67816 | 232 ft | 0 kts | 346° |
| 2026-05-07 16:56 | 41.23765 | -8.67853 | 226 ft | 53 kts | 348° |
| 2026-05-07 16:56 | 41.25323 | -8.68259 | 231 ft | 160 kts | 345° |
| 2026-05-07 16:57 | 41.26403 | -8.68533 | 910 ft | 157 kts | 345° |
| 2026-05-07 16:57 | 41.27485 | -8.68820 | 1485 ft | 162 kts | 342° |
| 2026-05-07 16:57 | 41.28659 | -8.69136 | 1779 ft | 183 kts | 343° |
| 2026-05-07 16:57 | 41.29980 | -8.69491 | 2018 ft | 205 kts | 346° |
| 2026-05-07 16:58 | 41.31462 | -8.69886 | 2217 ft | 230 kts | 346° |
| 2026-05-07 16:58 | 41.33107 | -8.70323 | 2641 ft | 250 kts | 344° |
| 2026-05-07 16:58 | 41.34845 | -8.70781 | 3350 ft | 259 kts | 345° |
| 2026-05-07 16:58 | 41.36637 | -8.71250 | 4064 ft | 267 kts | 346° |
| 2026-05-07 16:59 | 41.37849 | -8.71567 | 4573 ft | 270 kts | 346° |
| 2026-05-07 16:59 | 41.39633 | -8.72381 | 5256 ft | 274 kts | 325° |
| 2026-05-07 16:59 | 41.40990 | -8.74124 | 5922 ft | 274 kts | 298° |
| 2026-05-07 16:59 | 41.41641 | -8.76475 | 6582 ft | 271 kts | 272° |
| 2026-05-07 17:00 | 41.41512 | -8.78945 | 7250 ft | 268 kts | 254° |
| 2026-05-07 17:00 | 41.41073 | -8.81369 | 7965 ft | 269 kts | 244° |
| 2026-05-07 17:00 | 41.40042 | -8.83407 | 8634 ft | 267 kts | 219° |
| 2026-05-07 17:00 | 41.38443 | -8.84629 | 9328 ft | 268 kts | 194° |
| 2026-05-07 17:01 | 41.36591 | -8.84782 | 9989 ft | 271 kts | 171° |
| 2026-05-07 17:01 | 41.34715 | -8.84290 | 10490 ft | 282 kts | 169° |
| 2026-05-07 17:01 | 41.32716 | -8.83748 | 10629 ft | 304 kts | 169° |
| 2026-05-07 17:01 | 41.30570 | -8.83169 | 10759 ft | 325 kts | 169° |
| 2026-05-07 17:02 | 41.28314 | -8.82565 | 11142 ft | 335 kts | 169° |
| 2026-05-07 17:02 | 41.26012 | -8.81953 | 11715 ft | 340 kts | 169° |
| 2026-05-07 17:02 | 41.23681 | -8.81335 | 12317 ft | 344 kts | 169° |
| 2026-05-07 17:02 | 41.21324 | -8.80711 | 12906 ft | 348 kts | 169° |
| 2026-05-07 17:03 | 41.18938 | -8.80079 | 13489 ft | 352 kts | 169° |
| 2026-05-07 17:03 | 41.16523 | -8.79441 | 14036 ft | 356 kts | 169° |
| 2026-05-07 17:03 | 41.14084 | -8.78798 | 14554 ft | 359 kts | 169° |
| 2026-05-07 17:03 | 41.11616 | -8.78165 | 15017 ft | 364 kts | 170° |
| 2026-05-07 17:04 | 41.09109 | -8.77574 | 15505 ft | 368 kts | 171° |
| 2026-05-07 17:04 | 41.06574 | -8.77010 | 15992 ft | 371 kts | 171° |
| 2026-05-07 17:04 | 41.04016 | -8.76450 | 16486 ft | 374 kts | 171° |
| 2026-05-07 17:04 | 41.01434 | -8.75878 | 16835 ft | 378 kts | 171° |
| 2026-05-07 17:05 | 40.98850 | -8.75296 | 16916 ft | 376 kts | 171° |
| 2026-05-07 17:05 | 40.96272 | -8.74708 | 16918 ft | 376 kts | 171° |
| 2026-05-07 17:05 | 40.93728 | -8.74124 | 16919 ft | 376 kts | 171° |
| 2026-05-07 17:05 | 40.91145 | -8.73529 | 16954 ft | 379 kts | 171° |
| 2026-05-07 17:06 | 40.88541 | -8.72928 | 17447 ft | 381 kts | 171° |
| 2026-05-07 17:06 | 40.85922 | -8.72324 | 17936 ft | 383 kts | 171° |
| 2026-05-07 17:06 | 40.83287 | -8.71721 | 18358 ft | 385 kts | 171° |
| 2026-05-07 17:06 | 40.80634 | -8.71115 | 18704 ft | 389 kts | 171° |
| 2026-05-07 17:07 | 40.77955 | -8.70504 | 19013 ft | 392 kts | 171° |
| 2026-05-07 17:07 | 40.75257 | -8.69888 | 19326 ft | 396 kts | 171° |
| 2026-05-07 17:07 | 40.72533 | -8.69270 | 19672 ft | 398 kts | 173° |
| 2026-05-07 17:07 | 40.69796 | -8.68650 | 20020 ft | 400 kts | 172° |
| 2026-05-07 17:08 | 40.67047 | -8.68026 | 20369 ft | 403 kts | 172° |
| 2026-05-07 17:08 | 40.64279 | -8.67399 | 20720 ft | 405 kts | 172° |
| 2026-05-07 17:08 | 40.61489 | -8.66764 | 21060 ft | 408 kts | 172° |
| 2026-05-07 17:08 | 40.58682 | -8.66125 | 21393 ft | 411 kts | 172° |
| 2026-05-07 17:09 | 40.55857 | -8.65480 | 21772 ft | 413 kts | 172° |
| 2026-05-07 17:09 | 40.53020 | -8.64837 | 22148 ft | 415 kts | 173° |
| 2026-05-07 17:09 | 40.50165 | -8.64190 | 22527 ft | 417 kts | 173° |
| 2026-05-07 17:09 | 40.47293 | -8.63541 | 22839 ft | 420 kts | 173° |
| 2026-05-07 17:10 | 40.44402 | -8.62888 | 22902 ft | 423 kts | 172° |
| 2026-05-07 17:10 | 40.41500 | -8.62231 | 22904 ft | 424 kts | 173° |
| 2026-05-07 17:10 | 40.38597 | -8.61573 | 22904 ft | 424 kts | 173° |
| 2026-05-07 17:10 | 40.35689 | -8.60918 | 22904 ft | 423 kts | 173° |
| 2026-05-07 17:11 | 40.32787 | -8.60266 | 22907 ft | 424 kts | 173° |
| 2026-05-07 17:11 | 40.29883 | -8.59614 | 22906 ft | 423 kts | 172° |
| 2026-05-07 17:11 | 40.26978 | -8.58965 | 22906 ft | 424 kts | 173° |
| 2026-05-07 17:11 | 40.24073 | -8.58313 | 22906 ft | 423 kts | 172° |
| 2026-05-07 17:12 | 40.21225 | -8.57669 | 22902 ft | 405 kts | 172° |
| 2026-05-07 17:12 | 40.18500 | -8.57050 | 22907 ft | 393 kts | 172° |
| 2026-05-07 17:12 | 40.15817 | -8.56448 | 22904 ft | 390 kts | 173° |
| 2026-05-07 17:12 | 40.13143 | -8.55854 | 22906 ft | 389 kts | 173° |
| 2026-05-07 17:13 | 40.10474 | -8.55260 | 22907 ft | 390 kts | 173° |
| 2026-05-07 17:13 | 40.07832 | -8.54669 | 22906 ft | 390 kts | 173° |
| 2026-05-07 17:13 | 40.05159 | -8.54071 | 22907 ft | 390 kts | 173° |
| 2026-05-07 17:13 | 40.02477 | -8.53558 | 22907 ft | 389 kts | 178° |
| 2026-05-07 17:14 | 39.99781 | -8.53332 | 22908 ft | 388 kts | 179° |
| 2026-05-07 17:14 | 39.97086 | -8.53113 | 22910 ft | 388 kts | 179° |
| 2026-05-07 17:14 | 39.94390 | -8.52893 | 22908 ft | 388 kts | 179° |
| 2026-05-07 17:14 | 39.91698 | -8.52672 | 22907 ft | 387 kts | 179° |
| 2026-05-07 17:15 | 39.89011 | -8.52450 | 22917 ft | 387 kts | 179° |
| 2026-05-07 17:15 | 39.86342 | -8.52228 | 22923 ft | 386 kts | 179° |
| 2026-05-07 17:15 | 39.83660 | -8.52002 | 22925 ft | 386 kts | 179° |
| 2026-05-07 17:15 | 39.80985 | -8.51778 | 22923 ft | 385 kts | 179° |
| 2026-05-07 17:16 | 39.78318 | -8.51816 | 22920 ft | 382 kts | 188° |
| 2026-05-07 17:16 | 39.75716 | -8.52419 | 22919 ft | 378 kts | 197° |
| 2026-05-07 17:16 | 39.73308 | -8.53530 | 22905 ft | 357 kts | 206° |
| 2026-05-07 17:16 | 39.71189 | -8.55015 | 22894 ft | 340 kts | 213° |
| 2026-05-07 17:17 | 39.69188 | -8.56611 | 22911 ft | 335 kts | 213° |
| 2026-05-07 17:17 | 39.67201 | -8.58180 | 22911 ft | 334 kts | 213° |
| 2026-05-07 17:17 | 39.65217 | -8.59739 | 22909 ft | 331 kts | 212° |
| 2026-05-07 17:17 | 39.63297 | -8.61242 | 22903 ft | 314 kts | 212° |
| 2026-05-07 17:18 | 39.61473 | -8.62664 | 22903 ft | 300 kts | 212° |
| 2026-05-07 17:18 | 39.59698 | -8.64051 | 22902 ft | 296 kts | 213° |
| 2026-05-07 17:18 | 39.57940 | -8.65431 | 22910 ft | 295 kts | 213° |
| 2026-05-07 17:18 | 39.56184 | -8.66810 | 22913 ft | 295 kts | 213° |
| 2026-05-07 17:19 | 39.54426 | -8.68187 | 22908 ft | 295 kts | 213° |
| 2026-05-07 17:19 | 39.52669 | -8.69561 | 22911 ft | 295 kts | 213° |
| 2026-05-07 17:19 | 39.50912 | -8.70934 | 22908 ft | 295 kts | 213° |
| 2026-05-07 17:19 | 39.49139 | -8.72322 | 22512 ft | 299 kts | 213° |
| 2026-05-07 17:20 | 39.47361 | -8.73712 | 21983 ft | 299 kts | 212° |
| 2026-05-07 17:20 | 39.45580 | -8.75103 | 21463 ft | 299 kts | 212° |
| 2026-05-07 17:20 | 39.43799 | -8.76496 | 20955 ft | 298 kts | 212° |
| 2026-05-07 17:20 | 39.42070 | -8.77852 | 20553 ft | 293 kts | 213° |
| 2026-05-07 17:21 | 39.40386 | -8.79370 | 20186 ft | 289 kts | 219° |
| 2026-05-07 17:21 | 39.38905 | -8.81049 | 19868 ft | 284 kts | 224° |
| 2026-05-07 17:21 | 39.37581 | -8.82896 | 19616 ft | 277 kts | 228° |
| 2026-05-07 17:21 | 39.36318 | -8.84762 | 19249 ft | 275 kts | 228° |
| 2026-05-07 17:22 | 39.35059 | -8.86616 | 18848 ft | 274 kts | 227° |
| 2026-05-07 17:22 | 39.33800 | -8.88465 | 18469 ft | 274 kts | 227° |
| 2026-05-07 17:22 | 39.32545 | -8.90308 | 18085 ft | 273 kts | 227° |
| 2026-05-07 17:22 | 39.31298 | -8.92134 | 17688 ft | 270 kts | 227° |
| 2026-05-07 17:23 | 39.30057 | -8.93951 | 17268 ft | 269 kts | 227° |
| 2026-05-07 17:23 | 39.28823 | -8.95758 | 16872 ft | 268 kts | 227° |
| 2026-05-07 17:23 | 39.27590 | -8.97564 | 16464 ft | 267 kts | 227° |
| 2026-05-07 17:23 | 39.26369 | -8.99356 | 16109 ft | 265 kts | 227° |
| 2026-05-07 17:24 | 39.25157 | -9.01132 | 15767 ft | 262 kts | 226° |
| 2026-05-07 17:24 | 39.23953 | -9.02892 | 15376 ft | 262 kts | 227° |
| 2026-05-07 17:24 | 39.22754 | -9.04644 | 15012 ft | 260 kts | 226° |
| 2026-05-07 17:24 | 39.21553 | -9.06396 | 14614 ft | 260 kts | 226° |
| 2026-05-07 17:25 | 39.20359 | -9.08136 | 14278 ft | 258 kts | 227° |
| 2026-05-07 17:25 | 39.19170 | -9.09872 | 13942 ft | 257 kts | 226° |
| 2026-05-07 17:25 | 39.17990 | -9.11596 | 13590 ft | 256 kts | 226° |
| 2026-05-07 17:25 | 39.16813 | -9.13314 | 13195 ft | 255 kts | 226° |
| 2026-05-07 17:26 | 39.15641 | -9.15021 | 12837 ft | 254 kts | 226° |
| 2026-05-07 17:26 | 39.14475 | -9.16718 | 12476 ft | 252 kts | 226° |
| 2026-05-07 17:26 | 39.13317 | -9.18401 | 12001 ft | 254 kts | 226° |
| 2026-05-07 17:26 | 39.12106 | -9.20154 | 11607 ft | 274 kts | 226° |
| 2026-05-07 17:27 | 39.10821 | -9.22014 | 11230 ft | 280 kts | 226° |
| 2026-05-07 17:27 | 39.09530 | -9.23888 | 10944 ft | 278 kts | 226° |
| 2026-05-07 17:27 | 39.08241 | -9.25762 | 10931 ft | 280 kts | 226° |
| 2026-05-07 17:27 | 39.06950 | -9.27640 | 10936 ft | 280 kts | 226° |
| 2026-05-07 17:28 | 39.05657 | -9.29521 | 10940 ft | 280 kts | 226° |
| 2026-05-07 17:28 | 39.04245 | -9.31236 | 10740 ft | 279 kts | 211° |
| 2026-05-07 17:28 | 39.02516 | -9.32273 | 10400 ft | 273 kts | 202° |
| 2026-05-07 17:28 | 39.00761 | -9.33197 | 9979 ft | 272 kts | 202° |
| 2026-05-07 17:29 | 38.99014 | -9.34116 | 9554 ft | 271 kts | 202° |
| 2026-05-07 17:29 | 38.97280 | -9.35028 | 9144 ft | 268 kts | 202° |
| 2026-05-07 17:29 | 38.95565 | -9.35931 | 8703 ft | 266 kts | 202° |
| 2026-05-07 17:29 | 38.93856 | -9.36834 | 8294 ft | 264 kts | 202° |
| 2026-05-07 17:30 | 38.92158 | -9.37731 | 7958 ft | 262 kts | 202° |
| 2026-05-07 17:30 | 38.90469 | -9.38621 | 7922 ft | 263 kts | 201° |
| 2026-05-07 17:30 | 38.88771 | -9.39513 | 7933 ft | 264 kts | 202° |
| 2026-05-07 17:30 | 38.87078 | -9.40404 | 7932 ft | 263 kts | 202° |
| 2026-05-07 17:31 | 38.85376 | -9.41300 | 7935 ft | 264 kts | 202° |
| 2026-05-07 17:31 | 38.83608 | -9.41907 | 7930 ft | 265 kts | 181° |
| 2026-05-07 17:31 | 38.81771 | -9.41628 | 7937 ft | 268 kts | 170° |
| 2026-05-07 17:31 | 38.79950 | -9.41137 | 7938 ft | 267 kts | 169° |
| 2026-05-07 17:32 | 38.78143 | -9.40621 | 7938 ft | 266 kts | 169° |
| 2026-05-07 17:32 | 38.76346 | -9.40084 | 7733 ft | 265 kts | 166° |
| 2026-05-07 17:32 | 38.74588 | -9.39367 | 7332 ft | 265 kts | 163° |
| 2026-05-07 17:32 | 38.73436 | -9.38859 | 7082 ft | 264 kts | 163° |
| 2026-05-07 17:33 | 38.71129 | -9.37810 | 6568 ft | 262 kts | 162° |
| 2026-05-07 17:33 | 38.69413 | -9.37025 | 6195 ft | 261 kts | 163° |
| 2026-05-07 17:33 | 38.67694 | -9.36246 | 5806 ft | 263 kts | 162° |
| 2026-05-07 17:33 | 38.65992 | -9.35483 | 5440 ft | 261 kts | 163° |
| 2026-05-07 17:34 | 38.64275 | -9.34716 | 5048 ft | 252 kts | 162° |
| 2026-05-07 17:34 | 38.62702 | -9.34011 | 4703 ft | 234 kts | 163° |
| 2026-05-07 17:34 | 38.61188 | -9.33332 | 4307 ft | 221 kts | 163° |
| 2026-05-07 17:34 | 38.59804 | -9.32709 | 4037 ft | 205 kts | 166° |
| 2026-05-07 17:35 | 38.58497 | -9.32086 | 4017 ft | 200 kts | 158° |
| 2026-05-07 17:35 | 38.57510 | -9.30834 | 4025 ft | 204 kts | 123° |
| 2026-05-07 17:35 | 38.57006 | -9.29147 | 4022 ft | 206 kts | 100° |
| 2026-05-07 17:35 | 38.57001 | -9.27315 | 4031 ft | 206 kts | 78° |
| 2026-05-07 17:36 | 38.57502 | -9.25622 | 4024 ft | 203 kts | 57° |
| 2026-05-07 17:36 | 38.58417 | -9.24299 | 4018 ft | 198 kts | 34° |
| 2026-05-07 17:36 | 38.59611 | -9.23463 | 3920 ft | 195 kts | 18° |
| 2026-05-07 17:36 | 38.60841 | -9.22812 | 3694 ft | 188 kts | 18° |
| 2026-05-07 17:37 | 38.62030 | -9.22181 | 3494 ft | 181 kts | 19° |
| 2026-05-07 17:37 | 38.63175 | -9.21572 | 3240 ft | 175 kts | 18° |
| 2026-05-07 17:37 | 38.64284 | -9.20982 | 2993 ft | 171 kts | 16° |
| 2026-05-07 17:37 | 38.65377 | -9.20400 | 2775 ft | 168 kts | 16° |
| 2026-05-07 17:38 | 38.66426 | -9.19840 | 2540 ft | 157 kts | 17° |
| 2026-05-07 17:38 | 38.67408 | -9.19316 | 2322 ft | 150 kts | 15° |
| 2026-05-07 17:38 | 38.68360 | -9.18810 | 2121 ft | 146 kts | 15° |
| 2026-05-07 17:38 | 38.69296 | -9.18312 | 1904 ft | 146 kts | 16° |
| 2026-05-07 17:39 | 38.70232 | -9.17813 | 1731 ft | 145 kts | 15° |
| 2026-05-07 17:39 | 38.71161 | -9.17318 | 1524 ft | 144 kts | 16° |
| 2026-05-07 17:39 | 38.72087 | -9.16823 | 1341 ft | 144 kts | 15° |
| 2026-05-07 17:39 | 38.73018 | -9.16327 | 1143 ft | 146 kts | 16° |
| 2026-05-07 17:40 | 38.73955 | -9.15826 | 946 ft | 144 kts | 14° |
| 2026-05-07 17:40 | 38.74867 | -9.15338 | 749 ft | 142 kts | 18° |
| 2026-05-07 17:40 | 38.75785 | -9.14848 | 574 ft | 143 kts | 18° |
| 2026-05-07 17:40 | 38.76704 | -9.14355 | 372 ft | 142 kts | 16° |
| 2026-05-07 17:41 | 38.77543 | -9.13911 | 369 ft | 108 kts | 23° |
| 2026-05-07 17:41 | 38.78082 | -9.13622 | 370 ft | 70 kts | 23° |
| 2026-05-07 17:41 | 38.78351 | -9.13385 | 363 ft | 22 kts | 49° |
| 2026-05-07 17:41 | 38.78348 | -9.13262 | 366 ft | 12 kts | 166° |
| 2026-05-07 17:42 | 38.78269 | -9.13288 | 362 ft | 12 kts | 202° |
| 2026-05-07 17:42 | 38.78190 | -9.13330 | 359 ft | 15 kts | 202° |
| 2026-05-07 17:42 | 38.78068 | -9.13394 | 362 ft | 20 kts | 202° |
| 2026-05-07 17:42 | 38.77942 | -9.13465 | 360 ft | 20 kts | 203° |
| 2026-05-07 17:43 | 38.77812 | -9.13504 | 354 ft | 20 kts | 176° |
| 2026-05-07 17:43 | 38.77664 | -9.13468 | 354 ft | 23 kts | 168° |
| 2026-05-07 17:43 | 38.77506 | -9.13425 | 343 ft | 20 kts | 168° |
| 2026-05-07 17:43 | 38.77402 | -9.13397 | 352 ft | 6 kts | 168° |
| 2026-05-07 17:44 | 38.77397 | -9.13396 | 351 ft | 0 kts | 168° |
| 2026-05-07 17:45 | 38.77353 | -9.13377 | 342 ft | 13 kts | 149° |
| 2026-05-07 17:45 | 38.77297 | -9.13254 | 335 ft | 17 kts | 154° |
| 2026-05-07 17:46 | 38.77221 | -9.13230 | 335 ft | 17 kts | 168° |
| 2026-05-07 17:46 | 38.77153 | -9.13173 | 336 ft | 8 kts | 85° |
| 2026-05-07 17:46 | 38.77159 | -9.13131 | 334 ft | 2 kts | 78° |
| 2026-05-07 17:46 | 38.77160 | -9.13129 | 334 ft | 0 kts | 78° |